Flight Track Log - Related Links

Times and Time Zones

All times are in EDT time to prevent confusion due to time zone crossing. See the N569TA flight status page for this flight to view local times or setup timezone preferences in your user account.

Time Position Orientation Groundspeed Altitude Reporting Facility
EDT Latitude Longitude Course Direction KTS MPH feet Rate Location/Type
Sun 09:09:26 AM 44.0000 -88.6000 216° Southwest 215 247 1,700  Level KMKE
Sun 09:09:44 AM 43.9833 -88.6167 216° Southwest 198 228 2,300 2,521 Climbing KMKE
Sun 09:12:15 AM 43.8503 -88.7525 216° Southwest 239 275 8,800 2,462 Climbing Chicago Center
Sun 09:13:16 AM 43.7864 -88.8158 216° Southwest 270 311 11,000 2,098 Climbing Chicago Center
Sun 09:14:18 AM 43.7208 -88.8858 218° Southwest 293 337 13,100 2,098 Climbing Chicago Center
Sun 09:15:19 AM 43.6550 -88.9567 218° Southwest 299 344 15,300 2,098 Climbing Chicago Center
Sun 09:16:21 AM 43.5881 -89.0272 217° Southwest 302 348 17,400 2,244 Climbing Chicago Center
Sun 09:17:22 AM 43.5094 -89.1125 218° Southwest 307 353 19,900 2,049 Climbing Chicago Center
Sun 09:18:24 AM 43.4411 -89.1836 217° Southwest 309 356 21,600 1,548 Climbing Chicago Center
Sun 09:19:26 AM 43.3717 -89.2581 218° Southwest 316 364 23,100 1,463 Climbing Chicago Center
Sun 09:20:27 AM 43.2986 -89.3347 217° Southwest 329 379 24,600 1,463 Climbing Chicago Center
Sun 09:21:29 AM 43.2244 -89.4117 217° Southwest 334 384 26,100 1,403 Climbing Chicago Center
Sun 09:22:31 AM 43.1489 -89.4894 217° Southwest 339 390 27,500 1,512 Climbing Chicago Center
Sun 09:23:32 AM 43.0606 -89.5806 217° Southwest 341 392 29,200 1,561 Climbing Chicago Center
Sun 09:24:34 AM 42.9847 -89.6578 217° Southwest 339 390 30,700 1,366 Climbing Chicago Center
Sun 09:25:35 AM 42.9103 -89.7367 218° Southwest 339 390 32,000 1,220 Climbing Chicago Center
Sun 09:26:37 AM 42.8344 -89.8131 216° Southwest 339 390 33,200 1,161 Climbing Chicago Center
Sun 09:27:39 AM 42.7594 -89.8914 217° Southwest 341 392 34,400 1,210 Climbing Chicago Center
Sun 09:28:41 AM 42.6761 -89.9786 218° Southwest 340 391 35,700 1,220 Climbing Chicago Center
Sun 09:29:42 AM 42.6022 -90.0542 217° Southwest 337 388 36,900 1,171 Climbing Chicago Center
Sun 09:30:44 AM 42.5292 -90.1281 217° Southwest 332 382 38,100 1,113 Climbing Chicago Center
Sun 09:31:46 AM 42.4578 -90.2003 217° Southwest 325 374 39,200 919 Climbing Chicago Center
Sun 09:32:48 AM 42.3894 -90.2692 217° Southwest 313 360 40,000 390 Climbing Chicago Center
Sun 09:33:49 AM 42.3197 -90.3397 217° Southwest 314 361 40,000  Level Chicago Center
Sun 09:34:51 AM 42.2453 -90.4131 216° Southwest 329 379 40,000  Level Chicago Center
Sun 09:35:53 AM 42.1531 -90.5069 217° Southwest 345 397 40,000  Level Chicago Center
Sun 09:36:54 AM 42.0736 -90.5864 217° Southwest 354 407 40,000  Level Chicago Center
Sun 09:37:56 AM 41.9911 -90.6706 217° Southwest 369 425 40,000  Level Chicago Center
Sun 09:38:58 AM 41.9075 -90.7542 217° Southwest 375 432 40,000  Level Chicago Center
Sun 09:39:59 AM 41.8242 -90.8350 216° Southwest 371 427 40,000  Level Chicago Center
Sun 09:41:01 AM 41.7386 -90.9208 217° Southwest 383 441 40,000  Level Chicago Center
Sun 09:42:03 AM 41.6367 -91.0200 216° Southwest 380 437 40,000  Level Chicago Center
Sun 09:43:04 AM 41.5500 -91.1042 216° Southwest 386 444 40,000  Level Chicago Center
Sun 09:44:06 AM 41.4736 -91.1786 216° Southwest 386 444 40,000  Level Chicago Center
Sun 09:45:08 AM 41.3703 -91.2797 216° Southwest 385 443 40,000  Level Chicago Center
Sun 09:46:09 AM 41.2914 -91.3561 216° Southwest 387 445 40,000 -49 Level Chicago Center
Sun 09:47:11 AM 41.1961 -91.4483 216° Southwest 389 448 39,900  Descending Chicago Center
Sun 09:48:13 AM 41.1097 -91.5319 216° Southwest 387 445 40,000 49 Climbing Chicago Center
Sun 09:49:14 AM 41.0225 -91.6164 216° Southwest 388 447 40,000  Level Chicago Center
Sun 09:50:16 AM 40.9222 -91.7108 215° Southwest 389 448 40,000  Level Chicago Center
Sun 09:51:17 AM 40.8344 -91.7950 216° Southwest 392 451 40,000  Level Chicago Center
Sun 09:52:19 AM 40.7467 -91.8781 216° Southwest 391 450 40,000  Level Chicago Center
Sun 09:53:21 AM 40.6586 -91.9606 215° Southwest 391 450 40,000  Level Chicago Center
Sun 09:54:22 AM 40.5700 -92.0442 216° Southwest 392 451 40,000  Level Chicago Center
Sun 09:55:21 AM 40.4814 -92.1269 215° Southwest 390 449 40,000  Level Kansas City Center
Sun 09:56:22 AM 40.3919 -92.2100 215° Southwest 392 451 40,000  Level Kansas City Center
Sun 09:57:24 AM 40.3028 -92.2933 215° Southwest 394 453 40,000  Level Kansas City Center
Sun 09:58:25 AM 40.2086 -92.3808 215° Southwest 391 450 40,000  Level Kansas City Center
Sun 09:59:27 AM 40.1100 -92.4742 216° Southwest 391 450 40,000  Level Kansas City Center
Sun 10:00:28 AM 40.0164 -92.5603 215° Southwest 391 450 40,000  Level Kansas City Center
Sun 10:01:30 AM 39.9261 -92.6414 215° Southwest 393 452 40,000  Level Kansas City Center
Sun 10:02:31 AM 39.8375 -92.7239 216° Southwest 393 452 40,000  Level Kansas City Center
Sun 10:03:33 AM 39.7472 -92.8033 214° Southwest 394 453 40,000  Level Kansas City Center
Sun 10:04:34 AM 39.6569 -92.8842 215° Southwest 394 453 40,000  Level Kansas City Center
Sun 10:05:36 AM 39.5692 -92.9672 216° Southwest 393 452 40,000  Level Kansas City Center
Sun 10:06:37 AM 39.4783 -93.0506 215° Southwest 397 457 40,000  Level Kansas City Center
Sun 10:07:38 AM 39.3872 -93.1311 214° Southwest 399 459 40,000  Level Kansas City Center
Sun 10:08:40 AM 39.2789 -93.2303 215° Southwest 400 460 40,000  Level Kansas City Center
Sun 10:09:41 AM 39.1886 -93.3111 215° Southwest 398 458 40,000  Level Kansas City Center
Sun 10:10:43 AM 39.0989 -93.3919 215° Southwest 397 457 40,000  Level Kansas City Center
Sun 10:11:44 AM 39.0022 -93.4786 215° Southwest 396 456 40,000  Level Kansas City Center
Sun 10:12:46 AM 38.9114 -93.5592 215° Southwest 396 456 40,000  Level Kansas City Center
Sun 10:13:47 AM 38.8208 -93.6378 214° Southwest 394 453 40,000  Level Kansas City Center
Sun 10:14:48 AM 38.7303 -93.7167 214° Southwest 394 453 40,000  Level Kansas City Center
Sun 10:15:50 AM 38.6361 -93.8003 215° Southwest 396 456 40,000  Level Kansas City Center
Sun 10:16:51 AM 38.5511 -93.8756 215° Southwest 390 449 40,000  Level Kansas City Center
Sun 10:17:53 AM 38.4647 -93.9522 215° Southwest 383 441 40,000 -293 Level Kansas City Center
Sun 10:18:54 AM 38.3556 -94.0461 214° Southwest 387 445 39,400 -927 Descending Kansas City Center
Sun 10:19:56 AM 38.2644 -94.1253 214° Southwest 395 455 38,100 -1,220 Descending Kansas City Center
Sun 10:20:57 AM 38.1697 -94.2064 214° Southwest 410 472 36,900 -1,268 Descending Kansas City Center
Sun 10:21:59 AM 38.0775 -94.2869 215° Southwest 417 480 35,500 -1,659 Descending Kansas City Center
Sun 10:23:00 AM 37.9689 -94.3794 214° Southwest 418 481 33,500 -1,805 Descending Kansas City Center
Sun 10:24:02 AM 37.8717 -94.4614 214° Southwest 431 496 31,800 -1,854 Descending Kansas City Center
Sun 10:25:03 AM 37.7589 -94.5592 214° Southwest 438 504 29,700 -1,951 Descending Kansas City Center
Sun 10:26:05 AM 37.6600 -94.6428 214° Southwest 432 497 27,800 -1,805 Descending Kansas City Center
Sun 10:27:06 AM 37.5625 -94.7247 214° Southwest 423 487 26,000 -1,707 Descending Kansas City Center
Sun 10:28:08 AM 37.4689 -94.8050 214° Southwest 410 472 24,300 -1,659 Descending Kansas City Center
Sun 10:29:09 AM 37.3789 -94.8831 215° Southwest 397 457 22,600 -1,659 Descending Kansas City Center
Sun 10:30:11 AM 37.2889 -94.9550 212° Southwest 386 444 20,900 -1,645 Descending Kansas City Center
Sun 10:31:13 AM 37.2022 -95.0283 214° Southwest 379 436 19,200 -1,610 Descending Kansas City Center
Sun 10:32:14 AM 37.1153 -95.1000 213° Southwest 375 432 17,600 -1,659 Descending Kansas City Center
Sun 10:33:16 AM 37.0139 -95.1844 214° Southwest 366 421 15,800 -1,659 Descending Kansas City Center
Sun 10:34:17 AM 36.9328 -95.2517 214° Southwest 354 407 14,200 -1,545 Descending Kansas City Center
Sun 10:34:57 AM 36.8742 -95.3014 214° Southwest 340 391 13,200 -1,258 Descending Kansas City Center
Sun 10:35:19 AM 36.8533 -95.3164 210° Southwest 345 397 12,900 -1,102 Descending Kansas City Center
Sun 10:35:46 AM 36.8153 -95.3486 214° Southwest 330 380 12,300 -1,279 Descending Kansas City Center
Sun 10:36:20 AM 36.7772 -95.3800 213° Southwest 338 389 11,600 -1,343 Descending Kansas City Center
Sun 10:36:53 AM 36.7356 -95.4169 215° Southwest 323 372 10,800 -1,161 Descending Kansas City Center
Sun 10:37:22 AM 36.7028 -95.4414 211° Southwest 330 380 10,400 -800 Descending Kansas City Center
Sun 10:37:53 AM 36.6531 -95.4831 214° Southwest 327 376 10,000 -387 Descending Kansas City Center
Sun 10:38:24 AM 36.6275 -95.5039 213° Southwest 327 376 10,000  Level Kansas City Center
Sun 10:38:54 AM 36.5789 -95.5453 214° Southwest 321 369 10,000  Level Kansas City Center
Sun 10:39:25 AM 36.5550 -95.5631 211° Southwest 320 368 10,000  Level Kansas City Center
Sun 10:39:55 AM 36.5064 -95.6044 214° Southwest 309 356 10,000  Level Kansas City Center
Sun 10:40:27 AM 36.4694 -95.6328 212° Southwest 313 360 10,000  Level Kansas City Center
Sun 10:40:55 AM 36.4361 -95.6631 216° Southwest 311 358 10,000 -387 Level Kansas City Center
Sun 10:41:29 AM 36.3975 -95.6883 208° Southwest 310 357 9,600 -1,082 Descending Kansas City Center
Sun 10:41:56 AM 36.3628 -95.7144 211° Southwest 298 343 8,900 -1,377 Descending Kansas City Center
Sun 10:42:30 AM 36.3306 -95.7450 217° Southwest 298 343 8,200 -1,600 Descending Kansas City Center
Sun 10:42:56 AM 36.3011 -95.7769 221° Southwest 285 328 7,300 -1,742 Descending Kansas City Center
Sun 10:43:32 AM 36.2703 -95.8042 215° Southwest 283 326 6,400 -1,672 Descending Kansas City Center
Sun 10:43:57 AM 36.2411 -95.8342 220° Southwest 269 310 5,600 -1,645 Descending Kansas City Center
Sun 10:44:34 AM 36.2122 -95.8611 217° Southwest 272 313 4,700 -1,574 Descending Kansas City Center
Sun 10:44:58 AM 36.1850 -95.8906 221° Southwest 245 282 4,000 -1,377 Descending Kansas City Center
Sun 10:45:35 AM 36.1617 -95.9136 219° Southwest 249 287 3,300 -1,400 Descending Kansas City Center
Sun 10:45:58 AM 36.1369 -95.9408 222° Southwest 222 255 2,600 -1,355 Descending Kansas City Center
Sun 10:46:37 AM 36.1069 -95.9672 215° Southwest 221 254 1,900 -984 Descending Kansas City Center
Sun 10:46:59 AM 36.0914 -95.9725 195° South 172 198 1,600 -787 Descending Kansas City Center
Sun 10:47:38 AM 36.0672 -95.9778 190° South 172 198 1,100 -356 Descending Kansas City Center
Sun 10:48:40 AM 36.0344 -95.9869 193° South 163 188 1,000 -97 Descending Kansas City Center
Sun 10:50:00 AM 36.0333 -95.9833 North  Level FlightAware Approximate
Sun 10:57:00 AM 36.0396 -95.9846 North  Level Estimated

Login

Don't have an account? Register now (free) for customized features, flight alerts, and more!